Memphis, TN

8:57 PM CST on November 23, 2014 (GMT -0600)
Olive Branch | Change Station
CLOSE
Current Station
Airport
Location: Olive Branch,
Elevation: 400 ft
Nearby Weather Stations
Active Advisory: Wind Advisory

Elev 400 ft 34.98 °N, 89.79 °W | Updated 2 minutes ago

Overcast
Overcast
61 °F
Feels Like 61 °F
N
16
Wind Variable Wind from SSW
Gusts 25 mph

Today
High -- | Low -- °F
--% Chance of Precip.
Yesterday
High -- | Low -- °F
Precip. -- in
6:42 AM 4:50 PM
Waxing Crescent, 3% visible
Pressure 29.47 in
Visibility 7.0 miles
Clouds Mostly Cloudy 1700 ft
Mostly Cloudy 2400 ft
Overcast 2900 ft
Dew Point 61 °F
Humidity 100%
Rainfall 0.00 in
Snow Depth Not available.
UV 0 out of 12
Pollen .30 out of 12
Air Quality Not available.
Flu Activity Not available.
METAR KOLV 240255Z AUTO 21014G22KT 7SM BKN017 BKN024 OVC029 16/16 A2947 RMK A01 P000

More Conditions Fewer Conditions

Pressure 29.47 in
Visibility 7.0 miles
Clouds Mostly Cloudy 1700 ft
Mostly Cloudy 2400 ft
Overcast 2900 ft
Dew Point 61 °F
Humidity 100%
Rainfall 0.00 in
Snow Depth Not available.
UV 0 out of 12
Pollen .30 out of 12
Air Quality Not available.
Flu Activity Not available.
METAR KOLV 240255Z AUTO 21014G22KT 7SM BKN017 BKN024 OVC029 16/16 A2947 RMK A01 P000

More Conditions Fewer Conditions

10-Day Weather Forecast

Almanac

Astronomy

Nov. 23, 2014 Rise Set
Actual Time
Civil Twilight
Nautical Twilight
Astronomical Twilight
Moon
Length of Visible Light
Length of Day
Tomorrow will be .
, % of the Moon is Illuminated

Today's Extremes

State Highs State Lows

Community

WunderPhotos

Upload Photos

1,773,257 photos uploaded!

WunderBlogs® & News

Nearby

Air Quality

  Air Quality AQ Index Pollutant
Not available.

Snow Depth

Station Depth Elevation

Earthquake Activity

City Distance Mag. Time & Date
Minimum magnitude displayed is 2.5.

Coastal Water Temperatures

Place Temperature

Nearby Weather Stations